createdAt,value
2024-01-15T00:01:32.204Z,33.23
2024-01-15T00:03:59.946Z,33.42
2024-01-15T00:06:28.177Z,33.31
2024-01-15T00:08:55.890Z,33.54
2024-01-15T00:11:23.444Z,33.48
2024-01-15T00:13:51.102Z,33.16
2024-01-15T00:16:18.759Z,33.64
2024-01-15T00:18:46.434Z,33.25
2024-01-15T00:21:14.175Z,33.37
2024-01-15T00:23:41.883Z,33.29
2024-01-15T00:26:10.826Z,33.44
2024-01-15T00:28:38.634Z,33.28
2024-01-15T00:31:06.441Z,33.46
2024-01-15T00:33:34.207Z,33.34
2024-01-15T00:36:01.881Z,33.32
2024-01-15T00:38:29.463Z,33.33
2024-01-15T00:40:57.038Z,33.46
2024-01-15T00:43:24.845Z,33.66
2024-01-15T00:45:52.657Z,33.36
2024-01-15T00:48:20.458Z,33.30
2024-01-15T00:50:48.320Z,33.46
2024-01-15T00:53:15.916Z,33.18
2024-01-15T00:55:43.498Z,33.39
2024-01-15T00:58:11.060Z,33.46
2024-01-15T01:00:38.718Z,33.55
2024-01-15T01:03:06.485Z,33.45
2024-01-15T01:05:34.109Z,33.62
2024-01-15T01:08:01.686Z,33.29
2024-01-15T01:10:29.314Z,33.25
2024-01-15T01:12:56.910Z,33.16
2024-01-15T01:15:25.721Z,33.17
2024-01-15T01:17:53.600Z,33.45
2024-01-15T01:20:21.381Z,33.54
2024-01-15T01:22:49.056Z,33.33
2024-01-15T01:25:16.920Z,33.21
2024-01-15T01:27:44.604Z,33.16
2024-01-15T01:30:12.365Z,33.30
2024-01-15T01:32:40.112Z,33.28
2024-01-15T01:35:07.770Z,33.52
2024-01-15T01:37:35.843Z,33.29
2024-01-15T01:40:03.434Z,33.53
2024-01-15T01:42:31.246Z,33.70
2024-01-15T01:44:58.841Z,33.40
2024-01-15T01:47:27.623Z,33.46
2024-01-15T01:49:55.338Z,33.35
2024-01-15T01:52:22.953Z,33.58
2024-01-15T01:54:50.870Z,33.46
2024-01-15T01:57:18.956Z,33.21
2024-01-15T01:59:46.546Z,33.22
2024-01-15T02:02:14.160Z,33.56
2024-01-15T02:04:41.802Z,33.33
2024-01-15T02:07:10.832Z,33.33
2024-01-15T02:09:38.694Z,33.52
2024-01-15T02:12:06.403Z,33.15
2024-01-15T02:14:33.971Z,33.28
2024-01-15T02:17:01.526Z,33.34
2024-01-15T02:19:29.249Z,33.46
2024-01-15T02:21:58.942Z,33.23
2024-01-15T02:24:26.587Z,33.49
2024-01-15T02:26:54.178Z,33.55
2024-01-15T02:29:21.764Z,33.27
2024-01-15T02:31:49.720Z,33.36
2024-01-15T02:34:17.496Z,33.17
2024-01-15T02:36:45.288Z,33.32
2024-01-15T02:39:13.035Z,33.47
2024-01-15T02:41:41.983Z,33.56
2024-01-15T02:44:09.763Z,33.37
2024-01-15T02:46:37.465Z,33.67
2024-01-15T02:49:05.450Z,33.22
2024-01-15T02:51:33.354Z,33.32
2024-01-15T02:54:01.193Z,33.19
2024-01-15T02:56:28.811Z,33.14
2024-01-15T02:58:56.444Z,33.18
2024-01-15T03:01:24.318Z,33.28
2024-01-15T03:03:52.153Z,33.13
2024-01-15T03:06:19.800Z,33.46
2024-01-15T03:08:47.440Z,33.35
2024-01-15T03:11:15.007Z,33.28
2024-01-15T03:13:42.655Z,33.22
2024-01-15T03:16:10.210Z,33.18
2024-01-15T03:18:38.820Z,33.48
2024-01-15T03:21:06.665Z,33.29
2024-01-15T03:23:34.313Z,33.46
2024-01-15T03:26:02.219Z,33.40
2024-01-15T03:28:31.487Z,33.58
2024-01-15T03:30:59.230Z,33.44
2024-01-15T03:33:27.038Z,33.28
2024-01-15T03:35:54.794Z,33.23
2024-01-15T03:38:22.411Z,33.18
2024-01-15T03:40:50.668Z,33.23
2024-01-15T03:43:18.294Z,33.23
2024-01-15T03:45:46.960Z,33.24
2024-01-15T03:48:14.693Z,33.30
2024-01-15T03:50:42.337Z,33.39
2024-01-15T03:53:09.924Z,33.34
2024-01-15T03:55:37.562Z,33.45
2024-01-15T03:58:05.158Z,33.33
2024-01-15T04:00:32.793Z,33.67
2024-01-15T04:03:00.398Z,33.45
2024-01-15T04:05:28.260Z,33.75
2024-01-15T04:07:55.866Z,33.42
2024-01-15T04:10:23.511Z,33.51
2024-01-15T04:12:51.217Z,33.45
2024-01-15T04:15:18.940Z,33.29
2024-01-15T04:17:46.579Z,33.52
2024-01-15T04:20:14.174Z,33.25
2024-01-15T04:22:41.863Z,33.48
2024-01-15T04:25:09.444Z,33.54
2024-01-15T04:27:37.213Z,33.42
2024-01-15T04:30:04.937Z,33.37
2024-01-15T04:32:32.600Z,33.34
2024-01-15T04:35:00.183Z,33.28
2024-01-15T04:37:27.917Z,33.11
2024-01-15T04:39:56.340Z,33.34
2024-01-15T04:42:24.087Z,33.48
2024-01-15T04:44:51.849Z,33.18
2024-01-15T04:47:19.798Z,33.30
2024-01-15T04:49:47.757Z,33.18
2024-01-15T04:52:15.395Z,33.53
2024-01-15T04:54:43.038Z,33.24
2024-01-15T04:57:10.706Z,33.44
2024-01-15T04:59:38.320Z,33.19
2024-01-15T05:02:05.960Z,33.17
2024-01-15T05:04:34.102Z,33.26
2024-01-15T05:07:02.022Z,33.31
2024-01-15T05:09:32.947Z,33.22
2024-01-15T05:12:01.039Z,33.44
2024-01-15T05:14:28.807Z,33.65
2024-01-15T05:16:56.409Z,33.64
2024-01-15T05:19:24.624Z,34.33
2024-01-15T05:21:52.437Z,34.26
2024-01-15T05:24:20.084Z,33.75
2024-01-15T05:26:48.018Z,33.87
2024-01-15T05:29:15.659Z,34.01
2024-01-15T05:31:43.392Z,33.96
2024-01-15T05:34:11.228Z,33.58
2024-01-15T05:36:38.934Z,33.88
2024-01-15T05:39:06.769Z,33.64
2024-01-15T05:41:34.424Z,33.67
2024-01-15T05:44:01.998Z,33.55
2024-01-15T05:46:29.596Z,33.85
2024-01-15T05:48:57.271Z,33.74
2024-01-15T05:51:24.968Z,33.48
2024-01-15T05:53:52.862Z,33.82
2024-01-15T05:56:20.836Z,33.62
2024-01-15T05:58:48.403Z,33.52
2024-01-15T06:01:16.049Z,33.70
2024-01-15T06:03:43.726Z,33.63
2024-01-15T06:06:11.502Z,33.43
2024-01-15T06:08:39.298Z,33.55
2024-01-15T06:11:06.837Z,33.89
2024-01-15T06:13:34.438Z,33.84
2024-01-15T06:16:02.029Z,33.63
2024-01-15T06:18:29.893Z,33.80
2024-01-15T06:20:57.540Z,33.60
2024-01-15T06:23:26.211Z,33.84
2024-01-15T06:25:53.764Z,33.80
2024-01-15T06:28:21.349Z,33.53
2024-01-15T06:30:49.188Z,33.54
2024-01-15T06:33:16.944Z,33.79
2024-01-15T06:35:44.601Z,33.65
2024-01-15T06:38:12.162Z,33.64
2024-01-15T06:40:40.950Z,33.35
2024-01-15T06:43:08.640Z,33.79
2024-01-15T06:45:36.657Z,33.48
2024-01-15T06:48:04.345Z,33.49
2024-01-15T06:50:32.016Z,33.64
2024-01-15T06:52:59.712Z,33.35
2024-01-15T06:55:27.898Z,33.31
2024-01-15T06:57:55.574Z,33.13
2024-01-15T07:00:23.308Z,33.36
2024-01-15T07:02:50.953Z,33.68
2024-01-15T07:05:18.608Z,33.50
2024-01-15T07:07:46.263Z,33.42
2024-01-15T07:10:13.899Z,33.32
2024-01-15T07:12:41.528Z,33.49
2024-01-15T07:15:09.410Z,33.58
2024-01-15T07:17:37.212Z,33.59
2024-01-15T07:20:05.467Z,33.56
2024-01-15T07:22:33.032Z,33.57
2024-01-15T07:25:00.708Z,33.34
2024-01-15T07:27:28.317Z,33.67
2024-01-15T07:29:57.829Z,33.47
2024-01-15T07:32:26.780Z,33.56
2024-01-15T07:34:54.420Z,33.56
2024-01-15T07:37:22.010Z,33.44
2024-01-15T07:39:49.626Z,33.36
2024-01-15T07:42:17.422Z,33.58
2024-01-15T07:44:45.370Z,33.59
2024-01-15T07:47:12.988Z,33.44
2024-01-15T07:49:40.687Z,33.68
2024-01-15T07:52:08.413Z,33.47
2024-01-15T07:54:36.092Z,33.39
2024-01-15T07:57:04.338Z,33.59
2024-01-15T07:59:31.930Z,33.51
2024-01-15T08:01:59.846Z,33.73
2024-01-15T08:04:28.025Z,33.81
2024-01-15T08:06:55.855Z,33.59
2024-01-15T08:09:23.573Z,33.39
2024-01-15T08:11:51.213Z,33.18
2024-01-15T08:14:18.799Z,33.19
2024-01-15T08:16:46.389Z,33.28
2024-01-15T08:19:15.466Z,33.55
2024-01-15T08:21:43.312Z,33.13
2024-01-15T08:24:10.922Z,33.50
2024-01-15T08:26:38.620Z,33.15
2024-01-15T08:29:06.190Z,33.34
2024-01-15T08:31:33.964Z,33.37
2024-01-15T08:34:02.877Z,33.34
2024-01-15T08:36:30.823Z,33.22
2024-01-15T08:38:58.459Z,33.41
2024-01-15T08:41:26.048Z,33.02
2024-01-15T08:43:54.160Z,33.24
2024-01-15T08:46:21.742Z,33.11
2024-01-15T08:48:49.697Z,33.35
2024-01-15T08:51:17.390Z,33.04
2024-01-15T08:53:45.028Z,33.28
2024-01-15T08:56:12.618Z,33.22
2024-01-15T08:58:40.238Z,33.29
2024-01-15T09:01:08.125Z,33.08
2024-01-15T09:03:36.202Z,33.24
2024-01-15T09:06:04.445Z,33.15
2024-01-15T09:08:32.284Z,33.32
2024-01-15T09:11:00.365Z,32.97
2024-01-15T09:13:28.182Z,33.08
2024-01-15T09:16:11.230Z,32.98
2024-01-15T09:18:39.004Z,32.75
2024-01-15T09:21:06.690Z,33.00
2024-01-15T09:23:34.253Z,33.04
2024-01-15T09:26:01.900Z,33.15
2024-01-15T09:28:29.458Z,33.25
2024-01-15T09:30:57.212Z,33.05
2024-01-15T09:33:24.936Z,32.83
2024-01-15T09:35:52.598Z,32.80
2024-01-15T09:38:20.752Z,32.93
2024-01-15T09:40:48.347Z,33.17
2024-01-15T09:43:16.768Z,33.15
2024-01-15T09:45:44.503Z,33.11
2024-01-15T09:48:12.175Z,32.88
2024-01-15T09:50:39.818Z,33.08
2024-01-15T09:53:07.409Z,32.93
2024-01-15T09:55:35.055Z,33.11
2024-01-15T09:58:02.967Z,33.04
2024-01-15T10:00:30.936Z,33.04
2024-01-15T10:02:58.675Z,32.78
2024-01-15T10:05:26.270Z,32.97
2024-01-15T10:07:53.902Z,33.13
2024-01-15T10:10:22.903Z,33.03
2024-01-15T10:12:50.967Z,32.96
2024-01-15T10:15:18.812Z,32.80
2024-01-15T10:17:46.475Z,32.75
2024-01-15T10:20:14.370Z,32.65
2024-01-15T10:22:41.974Z,33.00
2024-01-15T10:25:09.795Z,32.69
2024-01-15T10:27:37.471Z,32.97
2024-01-15T10:30:05.133Z,33.04
2024-01-15T10:32:32.787Z,32.75
2024-01-15T10:35:00.549Z,32.86
2024-01-15T10:37:29.878Z,32.82
2024-01-15T10:39:58.040Z,32.78
2024-01-15T10:42:25.798Z,32.77
2024-01-15T10:44:53.465Z,32.96
2024-01-15T10:47:21.002Z,32.74
2024-01-15T10:49:48.695Z,32.71
2024-01-15T10:52:16.655Z,33.11
2024-01-15T10:54:44.343Z,33.09
2024-01-15T10:57:12.027Z,33.00
2024-01-15T10:59:39.635Z,33.16
2024-01-15T11:02:07.294Z,33.08
2024-01-15T11:04:35.030Z,32.81
2024-01-15T11:07:02.749Z,32.74
2024-01-15T11:09:31.837Z,32.98
2024-01-15T11:11:59.553Z,32.61
2024-01-15T11:14:27.150Z,32.88
2024-01-15T11:16:54.805Z,32.68
2024-01-15T11:19:22.426Z,32.69
2024-01-15T11:21:52.030Z,32.75
2024-01-15T11:24:19.667Z,32.75
2024-01-15T11:26:47.287Z,32.66
2024-01-15T11:29:14.949Z,32.78
2024-01-15T11:31:42.920Z,32.91
2024-01-15T11:34:11.969Z,32.65
2024-01-15T11:36:39.689Z,32.74
2024-01-15T11:39:07.322Z,32.70
2024-01-15T11:41:34.953Z,32.83
2024-01-15T11:44:02.504Z,32.75
2024-01-15T11:46:30.060Z,32.82
2024-01-15T11:48:57.715Z,32.79
2024-01-15T11:51:25.419Z,32.55
2024-01-15T11:53:54.154Z,32.72
2024-01-15T11:56:22.180Z,32.68
2024-01-15T11:58:51.571Z,32.95
2024-01-15T12:01:19.279Z,32.92
2024-01-15T12:03:46.971Z,32.80
2024-01-15T12:06:14.639Z,32.45
2024-01-15T12:08:42.275Z,32.49
2024-01-15T12:11:09.945Z,32.42
2024-01-15T12:13:37.710Z,32.34
2024-01-15T12:16:05.616Z,32.92
2024-01-15T12:18:33.701Z,32.53
2024-01-15T12:21:02.342Z,32.33
2024-01-15T12:23:30.349Z,32.76
2024-01-15T12:25:58.316Z,32.65
2024-01-15T12:28:25.890Z,32.43
2024-01-15T12:30:54.286Z,32.80
2024-01-15T12:33:23.010Z,32.53
2024-01-15T12:35:50.746Z,32.48
2024-01-15T12:38:18.332Z,32.89
2024-01-15T12:40:48.360Z,32.46
2024-01-15T12:43:16.022Z,32.45
2024-01-15T12:45:44.295Z,32.69
2024-01-15T12:48:12.348Z,32.94
2024-01-15T12:50:40.219Z,32.85
2024-01-15T12:53:09.275Z,32.53
2024-01-15T12:55:36.833Z,32.67
2024-01-15T12:58:05.111Z,32.88
2024-01-15T13:00:33.033Z,32.57
2024-01-15T13:03:01.909Z,32.42
2024-01-15T13:05:29.784Z,32.67
2024-01-15T13:07:57.580Z,32.82
2024-01-15T13:10:26.736Z,32.85
2024-01-15T13:12:54.717Z,32.83
2024-01-15T13:15:22.390Z,32.66
2024-01-15T13:17:50.023Z,32.47
2024-01-15T13:20:17.769Z,32.75
2024-01-15T13:22:46.680Z,32.55
2024-01-15T13:25:14.272Z,33.03
2024-01-15T13:27:43.096Z,33.02
2024-01-15T13:30:11.606Z,32.66
2024-01-15T13:32:39.297Z,32.54
2024-01-15T13:35:10.821Z,33.04
2024-01-15T13:37:39.390Z,32.72
2024-01-15T13:40:08.679Z,32.87
2024-01-15T13:42:39.326Z,33.01
2024-01-15T13:45:08.921Z,32.79
2024-01-15T13:47:36.810Z,32.72
2024-01-15T13:50:05.340Z,32.80
2024-01-15T13:52:33.360Z,33.01
2024-01-15T13:55:01.573Z,32.92
2024-01-15T13:57:29.767Z,33.15
2024-01-15T13:59:57.485Z,33.28
2024-01-15T14:02:26.468Z,32.88
2024-01-15T14:04:55.325Z,33.21
2024-01-15T14:07:22.995Z,33.17
2024-01-15T14:09:50.686Z,33.13
2024-01-15T14:12:18.387Z,33.18
2024-01-15T14:14:46.035Z,32.92
2024-01-15T14:17:13.608Z,32.92
2024-01-15T14:19:41.326Z,33.25
2024-01-15T14:22:08.886Z,32.95
2024-01-15T14:24:36.534Z,32.84
2024-01-15T14:27:04.156Z,32.93
2024-01-15T14:29:31.727Z,32.96
2024-01-15T14:32:00.709Z,32.95
2024-01-15T14:34:28.402Z,33.14
2024-01-15T14:36:56.467Z,33.24
2024-01-15T14:39:24.346Z,33.15
2024-01-15T14:41:52.443Z,33.18
2024-01-15T14:44:20.127Z,33.28
2024-01-15T14:46:48.014Z,33.29
2024-01-15T14:49:15.823Z,33.14
2024-01-15T14:51:43.812Z,32.60
2024-01-15T14:54:11.439Z,32.19
2024-01-15T14:56:39.030Z,32.19
2024-01-15T14:59:06.641Z,32.00
2024-01-15T15:01:34.591Z,30.76
2024-01-15T15:04:02.386Z,32.10
2024-01-15T15:06:30.636Z,31.73
2024-01-15T15:09:09.783Z,32.04
2024-01-15T15:11:37.745Z,32.13
2024-01-15T15:14:05.962Z,32.05
2024-01-15T15:16:33.584Z,31.48
2024-01-15T15:19:01.273Z,32.11
2024-01-15T15:21:29.849Z,31.87
2024-01-15T15:23:57.544Z,32.16
2024-01-15T15:26:25.185Z,31.52
2024-01-15T15:28:52.799Z,32.47
2024-01-15T15:31:20.358Z,32.15
2024-01-15T15:33:48.036Z,32.29
2024-01-15T15:36:16.081Z,32.07
2024-01-15T15:38:43.850Z,32.04
2024-01-15T15:41:11.456Z,32.05
2024-01-15T15:43:39.079Z,31.42
2024-01-15T15:46:06.818Z,32.39
2024-01-15T15:48:35.271Z,32.25
2024-01-15T15:51:04.189Z,32.28
2024-01-15T15:53:31.765Z,32.64
2024-01-15T15:55:59.784Z,32.61
2024-01-15T15:58:27.564Z,31.97
2024-01-15T16:00:55.254Z,32.00
2024-01-15T16:03:22.943Z,32.37
2024-01-15T16:05:53.347Z,32.07
2024-01-15T16:08:21.918Z,32.26
2024-01-15T16:10:52.430Z,32.04
2024-01-15T16:13:20.106Z,32.38
2024-01-15T16:15:47.965Z,32.20
2024-01-15T16:23:19.864Z,32.65
2024-01-15T16:23:34.469Z,32.50
2024-01-15T16:24:12.356Z,32.76
2024-01-15T16:26:42.823Z,33.29
2024-01-15T16:29:10.948Z,32.83
2024-01-15T16:31:38.951Z,33.29
2024-01-15T16:34:07.636Z,33.32
2024-01-15T16:36:37.057Z,33.19
2024-01-15T16:39:05.145Z,33.27
2024-01-15T16:41:32.812Z,33.36
2024-01-15T16:44:00.754Z,33.35
2024-01-15T16:46:29.155Z,33.25
2024-01-15T16:48:57.557Z,33.42
2024-01-15T16:51:25.260Z,33.55
2024-01-15T16:53:52.960Z,33.78
2024-01-15T16:56:21.395Z,33.92
2024-01-15T16:58:49.281Z,33.71
2024-01-15T17:01:22.571Z,33.85
2024-01-15T17:03:59.274Z,34.05
2024-01-15T17:06:30.081Z,33.74
2024-01-15T17:08:58.946Z,33.85
2024-01-15T17:11:26.613Z,34.09
2024-01-15T17:13:54.327Z,34.01
2024-01-15T17:16:23.271Z,34.08
2024-01-15T17:18:51.122Z,34.17
2024-01-15T17:21:19.608Z,34.21
2024-01-15T17:23:47.823Z,34.00
2024-01-15T17:26:15.859Z,33.76
2024-01-15T17:28:43.760Z,33.76
2024-01-15T17:31:11.587Z,33.91
2024-01-15T17:33:39.399Z,33.99
2024-01-15T17:36:07.929Z,34.40
2024-01-15T17:38:35.695Z,34.20
2024-01-15T17:41:04.066Z,34.26
2024-01-15T17:43:33.155Z,34.28
2024-01-15T17:46:04.822Z,34.04
2024-01-15T17:48:38.081Z,34.33
2024-01-15T17:51:10.388Z,34.10
2024-01-15T17:53:46.254Z,34.38
2024-01-15T17:56:17.676Z,34.38
2024-01-15T17:58:52.688Z,34.63
2024-01-15T18:01:22.808Z,34.47
2024-01-15T18:03:50.880Z,34.82
2024-01-15T18:06:18.720Z,34.34
2024-01-15T18:08:46.427Z,34.25
2024-01-15T18:11:14.068Z,34.68
2024-01-15T18:13:41.968Z,34.26
2024-01-15T18:16:09.775Z,34.06
2024-01-15T18:18:37.820Z,34.75
2024-01-15T18:21:06.113Z,34.36
2024-01-15T18:23:34.962Z,34.33
2024-01-15T18:26:03.817Z,34.32
2024-01-15T18:28:34.011Z,34.26
2024-01-15T18:31:06.585Z,34.43
2024-01-15T18:33:42.801Z,34.38
2024-01-15T18:36:19.017Z,34.44
2024-01-15T18:38:57.514Z,34.25
2024-01-15T18:41:30.812Z,33.90
2024-01-15T18:44:08.031Z,33.83
2024-01-15T18:46:43.816Z,33.99
2024-01-15T18:49:20.047Z,33.86
2024-01-15T18:51:54.165Z,33.97
2024-01-15T18:54:22.954Z,34.37
2024-01-15T18:56:50.669Z,33.94
2024-01-15T18:59:18.462Z,33.82
2024-01-15T19:01:46.262Z,34.01
2024-01-15T19:04:14.174Z,33.76
2024-01-15T19:06:42.794Z,33.98
2024-01-15T19:09:12.190Z,33.76
2024-01-15T19:11:39.958Z,34.09
2024-01-15T19:14:08.090Z,34.21
2024-01-15T19:16:35.850Z,33.98
2024-01-15T19:19:04.531Z,33.77
2024-01-15T19:21:32.458Z,33.75
2024-01-15T19:24:00.181Z,33.87
2024-01-15T19:26:28.161Z,34.08
2024-01-15T19:28:55.964Z,34.09
2024-01-15T19:31:23.656Z,33.85
2024-01-15T19:33:51.524Z,33.80
2024-01-15T19:36:19.308Z,34.14
2024-01-15T19:38:47.000Z,34.02
2024-01-15T19:41:15.504Z,33.93
2024-01-15T19:43:43.229Z,33.86
2024-01-15T19:46:10.925Z,34.02
2024-01-15T19:48:40.117Z,33.84
2024-01-15T19:51:07.921Z,34.05
2024-01-15T19:53:35.855Z,34.01
2024-01-15T19:56:04.481Z,33.27
2024-01-15T19:58:36.423Z,33.94
2024-01-15T20:01:04.382Z,33.77
2024-01-15T20:03:32.418Z,34.15
2024-01-15T20:06:00.417Z,34.19
2024-01-15T20:08:28.345Z,33.92
2024-01-15T20:10:59.756Z,34.12
2024-01-15T20:13:27.612Z,33.60
2024-01-15T20:15:55.318Z,34.05
2024-01-15T20:18:23.218Z,34.10
2024-01-15T20:20:51.085Z,33.96
2024-01-15T20:23:19.091Z,33.96
2024-01-15T20:25:46.847Z,33.98
2024-01-15T20:28:14.611Z,33.96
2024-01-15T20:30:42.367Z,33.99
2024-01-15T20:33:10.226Z,34.16
2024-01-15T20:35:38.115Z,33.81
2024-01-15T20:38:05.998Z,34.08
2024-01-15T20:40:35.682Z,34.02
2024-01-15T20:43:05.612Z,34.17
2024-01-15T20:45:33.899Z,34.06
2024-01-15T20:48:02.258Z,33.98
2024-01-15T20:50:30.102Z,33.93
2024-01-15T20:52:57.856Z,33.90
2024-01-15T20:55:25.554Z,33.78
2024-01-15T20:57:53.264Z,34.34
2024-01-15T21:00:21.353Z,34.23
2024-01-15T21:02:49.289Z,34.05
2024-01-15T21:05:17.351Z,34.07
2024-01-15T21:07:45.419Z,34.01
2024-01-15T21:10:13.094Z,34.30
2024-01-15T21:12:41.783Z,34.19
2024-01-15T21:15:10.013Z,34.26
2024-01-15T21:17:37.809Z,34.33
2024-01-15T21:20:09.473Z,34.32
2024-01-15T21:22:37.275Z,34.24
2024-01-15T21:25:04.999Z,34.15
2024-01-15T21:27:33.135Z,34.19
2024-01-15T21:30:00.864Z,33.85
2024-01-15T21:32:28.673Z,34.04
2024-01-15T21:34:56.400Z,34.02
2024-01-15T21:37:24.153Z,34.05
2024-01-15T21:39:51.815Z,34.13
2024-01-15T21:42:20.812Z,33.78
2024-01-15T21:44:48.623Z,34.13
2024-01-15T21:47:15.476Z,34.12
2024-01-15T21:49:43.242Z,34.22
2024-01-15T21:52:11.146Z,33.79
2024-01-15T21:54:38.842Z,33.93
2024-01-15T21:57:06.881Z,34.22
2024-01-15T21:59:34.746Z,33.84
2024-01-15T22:02:08.911Z,34.22
2024-01-15T22:04:36.694Z,33.91
2024-01-15T22:07:04.450Z,34.20
2024-01-15T22:09:32.180Z,33.98
2024-01-15T22:12:00.823Z,34.03
2024-01-15T22:14:29.386Z,33.90
2024-01-15T22:16:57.286Z,33.84
2024-01-15T22:19:25.030Z,33.96
2024-01-15T22:21:52.754Z,33.85
2024-01-15T22:24:20.419Z,33.98
2024-01-15T22:26:48.219Z,34.13
2024-01-15T22:29:15.942Z,33.90
2024-01-15T22:31:43.714Z,34.24
2024-01-15T22:34:11.601Z,34.30
2024-01-15T22:36:39.422Z,34.21
2024-01-15T22:39:07.136Z,33.83
2024-01-15T22:41:34.884Z,34.18
2024-01-15T22:44:02.686Z,34.01
2024-01-15T22:46:30.538Z,33.87
2024-01-15T22:48:58.485Z,34.01
2024-01-15T22:51:26.204Z,33.93
2024-01-15T22:53:55.035Z,34.12
2024-01-15T22:56:22.881Z,34.05
2024-01-15T22:58:50.630Z,33.96
2024-01-15T23:01:18.437Z,33.81
2024-01-15T23:03:46.233Z,34.06
2024-01-15T23:06:13.983Z,33.77
2024-01-15T23:08:41.706Z,34.15
2024-01-15T23:11:09.433Z,33.93
2024-01-15T23:13:37.128Z,34.31
2024-01-15T23:16:04.987Z,33.99
2024-01-15T23:18:33.652Z,34.22
2024-01-15T23:21:01.394Z,34.21
2024-01-15T23:23:29.191Z,34.27
2024-01-15T23:25:56.867Z,33.94
2024-01-15T23:28:24.552Z,34.03
2024-01-15T23:30:52.339Z,34.23
2024-01-15T23:33:20.250Z,33.90
2024-01-15T23:35:48.073Z,34.10
2024-01-15T23:38:15.861Z,34.17
2024-01-15T23:40:43.573Z,33.89
2024-01-15T23:43:11.334Z,33.92
2024-01-15T23:45:39.069Z,34.25
2024-01-15T23:48:06.819Z,34.25
2024-01-15T23:50:34.667Z,34.14
2024-01-15T23:53:02.461Z,34.12
2024-01-15T23:55:30.891Z,34.03
2024-01-15T23:57:58.171Z,33.93
